sensor_id;sensor_type;location;lat;lon;timestamp;pressure;altitude;pressure_sealevel;temperature
30001;BMP280;16845;48.670;9.000;2023-06-22T00:00:07;95593.13;;;20.84
30001;BMP280;16845;48.670;9.000;2023-06-22T00:02:33;95591.19;;;20.75
30001;BMP280;16845;48.670;9.000;2023-06-22T00:05:00;95582.31;;;20.80
30001;BMP280;16845;48.670;9.000;2023-06-22T00:07:28;95585.56;;;20.82
30001;BMP280;16845;48.670;9.000;2023-06-22T00:09:54;95588.75;;;20.73
30001;BMP280;16845;48.670;9.000;2023-06-22T00:12:21;95597.63;;;20.68
30001;BMP280;16845;48.670;9.000;2023-06-22T00:14:47;95598.53;;;20.67
30001;BMP280;16845;48.670;9.000;2023-06-22T00:17:14;95595.16;;;20.54
30001;BMP280;16845;48.670;9.000;2023-06-22T00:19:40;95603.72;;;20.53
30001;BMP280;16845;48.670;9.000;2023-06-22T00:22:07;95605.56;;;20.51
30001;BMP280;16845;48.670;9.000;2023-06-22T00:24:35;95602.28;;;20.49
30001;BMP280;16845;48.670;9.000;2023-06-22T00:27:01;95599.75;;;20.49
30001;BMP280;16845;48.670;9.000;2023-06-22T00:29:28;95591.78;;;20.53
30001;BMP280;16845;48.670;9.000;2023-06-22T00:31:55;95587.63;;;20.52
30001;BMP280;16845;48.670;9.000;2023-06-22T00:34:21;95584.16;;;20.53
30001;BMP280;16845;48.670;9.000;2023-06-22T00:36:48;95590.25;;;20.51
30001;BMP280;16845;48.670;9.000;2023-06-22T00:39:14;95593.94;;;20.47
30001;BMP280;16845;48.670;9.000;2023-06-22T00:41:42;95594.03;;;20.45
30001;BMP280;16845;48.670;9.000;2023-06-22T00:44:09;95594.66;;;20.49
30001;BMP280;16845;48.670;9.000;2023-06-22T00:46:35;95605.44;;;20.40
30001;BMP280;16845;48.670;9.000;2023-06-22T00:49:02;95604.94;;;20.35
30001;BMP280;16845;48.670;9.000;2023-06-22T00:51:28;95613.88;;;20.28
30001;BMP280;16845;48.670;9.000;2023-06-22T00:53:55;95613.88;;;20.28
30001;BMP280;16845;48.670;9.000;2023-06-22T00:56:23;95637.34;;;20.33
30001;BMP280;16845;48.670;9.000;2023-06-22T00:58:51;95652.09;;;20.28
30001;BMP280;16845;48.670;9.000;2023-06-22T01:01:17;95646.06;;;20.29
30001;BMP280;16845;48.670;9.000;2023-06-22T01:03:44;95631.72;;;20.28
30001;BMP280;16845;48.670;9.000;2023-06-22T01:06:15;95639.38;;;20.40
30001;BMP280;16845;48.670;9.000;2023-06-22T01:08:49;95662.81;;;20.45
30001;BMP280;16845;48.670;9.000;2023-06-22T01:11:20;95646.06;;;20.29
30001;BMP280;16845;48.670;9.000;2023-06-22T01:13:56;95616.16;;;20.06
30001;BMP280;16845;48.670;9.000;2023-06-22T01:16:27;95606.09;;;20.17
30001;BMP280;16845;48.670;9.000;2023-06-22T01:18:55;95616.44;;;20.28
30001;BMP280;16845;48.670;9.000;2023-06-22T01:21:25;95618.63;;;20.20
30001;BMP280;16845;48.670;9.000;2023-06-22T01:24:04;95603.47;;;19.92
30001;BMP280;16845;48.670;9.000;2023-06-22T01:26:38;95599.63;;;19.99
30001;BMP280;16845;48.670;9.000;2023-06-22T01:29:11;95600.34;;;20.01
30001;BMP280;16845;48.670;9.000;2023-06-22T01:31:39;95611.63;;;19.97
30001;BMP280;16845;48.670;9.000;2023-06-22T01:34:08;95594.22;;;19.91
30001;BMP280;16845;48.670;9.000;2023-06-22T01:36:35;95592.75;;;19.87
30001;BMP280;16845;48.670;9.000;2023-06-22T01:39:02;95596.03;;;19.89
30001;BMP280;16845;48.670;9.000;2023-06-22T01:41:35;95605.69;;;19.84
30001;BMP280;16845;48.670;9.000;2023-06-22T01:44:03;95601.72;;;19.80
30001;BMP280;16845;48.670;9.000;2023-06-22T01:46:32;95600.06;;;19.79
30001;BMP280;16845;48.670;9.000;2023-06-22T01:48:59;95609.63;;;19.75
30001;BMP280;16845;48.670;9.000;2023-06-22T01:51:26;95617.34;;;19.74
30001;BMP280;16845;48.670;9.000;2023-06-22T01:53:52;95606.09;;;19.64
30001;BMP280;16845;48.670;9.000;2023-06-22T01:56:19;95593.63;;;19.47
30001;BMP280;16845;48.670;9.000;2023-06-22T02:01:35;95616.28;;;19.64
30001;BMP280;16845;48.670;9.000;2023-06-22T02:04:06;95615.91;;;19.70
30001;BMP280;16845;48.670;9.000;2023-06-22T02:06:38;95620.09;;;19.71
30001;BMP280;16845;48.670;9.000;2023-06-22T02:09:08;95618.47;;;19.70
30001;BMP280;16845;48.670;9.000;2023-06-22T02:11:36;95619.19;;;19.72
30001;BMP280;16845;48.670;9.000;2023-06-22T02:14:04;95609.81;;;19.72
30001;BMP280;16845;48.670;9.000;2023-06-22T02:16:33;95607.00;;;19.77
30001;BMP280;16845;48.670;9.000;2023-06-22T02:19:01;95612.88;;;19.77
30001;BMP280;16845;48.670;9.000;2023-06-22T02:21:28;95620.44;;;19.79
30001;BMP280;16845;48.670;9.000;2023-06-22T02:23:55;95609.34;;;19.80
30001;BMP280;16845;48.670;9.000;2023-06-22T02:26:23;95605.38;;;19.76
30001;BMP280;16845;48.670;9.000;2023-06-22T02:28:51;95589.91;;;19.79
30001;BMP280;16845;48.670;9.000;2023-06-22T02:31:18;95587.34;;;19.79
30001;BMP280;16845;48.670;9.000;2023-06-22T02:33:46;95593.88;;;19.83
30001;BMP280;16845;48.670;9.000;2023-06-22T02:36:13;95595.56;;;19.70
30001;BMP280;16845;48.670;9.000;2023-06-22T02:38:40;95594.22;;;19.64
30001;BMP280;16845;48.670;9.000;2023-06-22T02:41:07;95587.25;;;19.54
30001;BMP280;16845;48.670;9.000;2023-06-22T02:43:33;95589.59;;;19.57
30001;BMP280;16845;48.670;9.000;2023-06-22T02:46:00;95580.50;;;19.67
30001;BMP280;16845;48.670;9.000;2023-06-22T02:48:26;95581.50;;;19.64
30001;BMP280;16845;48.670;9.000;2023-06-22T02:50:54;95572.91;;;19.53
30001;BMP280;16845;48.670;9.000;2023-06-22T02:53:20;95567.06;;;19.51
30001;BMP280;16845;48.670;9.000;2023-06-22T02:55:47;95566.78;;;19.55
30001;BMP280;16845;48.670;9.000;2023-06-22T02:58:13;95575.25;;;19.56
30001;BMP280;16845;48.670;9.000;2023-06-22T03:00:40;95574.34;;;19.57
30001;BMP280;16845;48.670;9.000;2023-06-22T03:03:06;95574.81;;;19.49
30001;BMP280;16845;48.670;9.000;2023-06-22T03:05:33;95576.66;;;19.47
30001;BMP280;16845;48.670;9.000;2023-06-22T03:08:01;95576.19;;;19.41
30001;BMP280;16845;48.670;9.000;2023-06-22T03:10:27;95566.13;;;19.39
30001;BMP280;16845;48.670;9.000;2023-06-22T03:12:54;95573.94;;;19.36
30001;BMP280;16845;48.670;9.000;2023-06-22T03:15:21;95574.03;;;19.35
30001;BMP280;16845;48.670;9.000;2023-06-22T03:17:48;95569.88;;;19.34
30001;BMP280;16845;48.670;9.000;2023-06-22T03:20:15;95579.94;;;19.35
30001;BMP280;16845;48.670;9.000;2023-06-22T03:22:42;95576.22;;;19.27
30001;BMP280;16845;48.670;9.000;2023-06-22T03:25:10;95566.88;;;19.27
30001;BMP280;16845;48.670;9.000;2023-06-22T03:27:36;95559.34;;;19.26
30001;BMP280;16845;48.670;9.000;2023-06-22T03:30:03;95554.25;;;19.26
30001;BMP280;16845;48.670;9.000;2023-06-22T03:32:30;95559.34;;;19.26
30001;BMP280;16845;48.670;9.000;2023-06-22T03:34:57;95563.50;;;19.27
30001;BMP280;16845;48.670;9.000;2023-06-22T03:37:23;95565.25;;;19.26
30001;BMP280;16845;48.670;9.000;2023-06-22T03:39:50;95559.53;;;19.23
30001;BMP280;16845;48.670;9.000;2023-06-22T03:42:17;95560.97;;;19.27
30001;BMP280;16845;48.670;9.000;2023-06-22T03:44:44;95548.59;;;19.35
30001;BMP280;16845;48.670;9.000;2023-06-22T03:47:11;95556.03;;;19.38
30001;BMP280;16845;48.670;9.000;2023-06-22T03:49:38;95561.13;;;19.38
30001;BMP280;16845;48.670;9.000;2023-06-22T03:52:05;95551.06;;;19.36
30001;BMP280;16845;48.670;9.000;2023-06-22T03:54:31;95549.59;;;19.32
30001;BMP280;16845;48.670;9.000;2023-06-22T03:56:58;95548.81;;;19.32
30001;BMP280;16845;48.670;9.000;2023-06-22T03:59:26;95550.59;;;19.30
30001;BMP280;16845;48.670;9.000;2023-06-22T04:01:53;95549.25;;;19.24
30001;BMP280;16845;48.670;9.000;2023-06-22T04:04:19;95558.81;;;19.21
30001;BMP280;16845;48.670;9.000;2023-06-22T04:06:46;95549.38;;;19.23
30001;BMP280;16845;48.670;9.000;2023-06-22T04:09:13;95550.34;;;19.20
30001;BMP280;16845;48.670;9.000;2023-06-22T04:11:39;95543.44;;;19.36
30001;BMP280;16845;48.670;9.000;2023-06-22T04:14:06;95541.19;;;19.44
30001;BMP280;16845;48.670;9.000;2023-06-22T04:16:34;95544.19;;;19.51
30001;BMP280;16845;48.670;9.000;2023-06-22T04:19:00;95535.47;;;19.55
30001;BMP280;16845;48.670;9.000;2023-06-22T04:21:27;95537.81;;;19.58
30001;BMP280;16845;48.670;9.000;2023-06-22T04:23:53;95548.69;;;19.60
30001;BMP280;16845;48.670;9.000;2023-06-22T04:26:20;95546.78;;;19.63
30001;BMP280;16845;48.670;9.000;2023-06-22T04:28:47;95539.94;;;19.64
30001;BMP280;16845;48.670;9.000;2023-06-22T04:31:13;95527.56;;;19.72
30001;BMP280;16845;48.670;9.000;2023-06-22T04:33:41;95529.59;;;19.79
30001;BMP280;16845;48.670;9.000;2023-06-22T04:36:08;95529.56;;;19.93
30001;BMP280;16845;48.670;9.000;2023-06-22T04:38:34;95523.13;;;19.88
30001;BMP280;16845;48.670;9.000;2023-06-22T04:41:01;95526.25;;;20.05
30001;BMP280;16845;48.670;9.000;2023-06-22T04:43:27;95526.84;;;20.09
30001;BMP280;16845;48.670;9.000;2023-06-22T04:45:54;95526.66;;;20.12
30001;BMP280;16845;48.670;9.000;2023-06-22T04:48:20;95515.44;;;20.27
30001;BMP280;16845;48.670;9.000;2023-06-22T04:50:48;95512.91;;;20.39
30001;BMP280;16845;48.670;9.000;2023-06-22T04:53:15;95509.72;;;20.48
30001;BMP280;16845;48.670;9.000;2023-06-22T04:55:41;95515.66;;;20.49
30001;BMP280;16845;48.670;9.000;2023-06-22T04:58:08;95506.34;;;20.73
30001;BMP280;16845;48.670;9.000;2023-06-22T05:00:34;95514.91;;;20.97
30001;BMP280;16845;48.670;9.000;2023-06-22T05:03:01;95514.47;;;21.03
30001;BMP280;16845;48.670;9.000;2023-06-22T05:05:44;95511.41;;;20.98
30001;BMP280;16845;48.670;9.000;2023-06-22T05:08:13;95506.38;;;21.09
30001;BMP280;16845;48.670;9.000;2023-06-22T05:10:39;95501.28;;;21.09
30001;BMP280;16845;48.670;9.000;2023-06-22T05:13:25;95500.25;;;21.24
30001;BMP280;16845;48.670;9.000;2023-06-22T05:15:51;95491.53;;;21.26
30001;BMP280;16845;48.670;9.000;2023-06-22T05:18:17;95488.59;;;21.20
30001;BMP280;16845;48.670;9.000;2023-06-22T05:20:44;95481.75;;;21.44
30001;BMP280;16845;48.670;9.000;2023-06-22T05:23:12;95486.34;;;21.62
30001;BMP280;16845;48.670;9.000;2023-06-22T05:25:39;95482.16;;;21.73
30001;BMP280;16845;48.670;9.000;2023-06-22T05:28:05;95480.97;;;21.67
30001;BMP280;16845;48.670;9.000;2023-06-22T05:30:32;95478.00;;;21.83
30001;BMP280;16845;48.670;9.000;2023-06-22T05:32:58;95481.47;;;21.72
30001;BMP280;16845;48.670;9.000;2023-06-22T05:35:25;95478.16;;;21.93
30001;BMP280;16845;48.670;9.000;2023-06-22T05:37:51;95484.47;;;21.76
30001;BMP280;16845;48.670;9.000;2023-06-22T05:40:19;95481.59;;;21.81
30001;BMP280;16845;48.670;9.000;2023-06-22T05:42:45;95480.38;;;21.97
30001;BMP280;16845;48.670;9.000;2023-06-22T05:45:12;95481.75;;;22.01
30001;BMP280;16845;48.670;9.000;2023-06-22T05:47:38;95482.69;;;22.00
30001;BMP280;16845;48.670;9.000;2023-06-22T05:50:06;95487.66;;;21.91
30001;BMP280;16845;48.670;9.000;2023-06-22T05:52:33;95484.94;;;21.71
30001;BMP280;16845;48.670;9.000;2023-06-22T05:54:59;95485.06;;;21.80
30001;BMP280;16845;48.670;9.000;2023-06-22T05:57:27;95482.88;;;21.86
30001;BMP280;16845;48.670;9.000;2023-06-22T05:59:53;95486.47;;;21.84
30001;BMP280;16845;48.670;9.000;2023-06-22T06:02:20;95478.34;;;21.79
30001;BMP280;16845;48.670;9.000;2023-06-22T06:04:47;95477.56;;;22.00
30001;BMP280;16845;48.670;9.000;2023-06-22T06:07:13;95474.81;;;22.03
30001;BMP280;16845;48.670;9.000;2023-06-22T06:09:40;95470.09;;;22.21
30001;BMP280;16845;48.670;9.000;2023-06-22T06:12:07;95484.25;;;22.25
30001;BMP280;16845;48.670;9.000;2023-06-22T06:14:35;95470.00;;;22.55
30001;BMP280;16845;48.670;9.000;2023-06-22T06:17:01;95469.31;;;22.64
30001;BMP280;16845;48.670;9.000;2023-06-22T06:19:28;95467.44;;;22.55
30001;BMP280;16845;48.670;9.000;2023-06-22T06:21:54;95471.88;;;22.75
30001;BMP280;16845;48.670;9.000;2023-06-22T06:24:21;95461.34;;;23.22
30001;BMP280;16845;48.670;9.000;2023-06-22T06:26:47;95470.28;;;23.59
30001;BMP280;16845;48.670;9.000;2023-06-22T06:29:14;95471.81;;;23.30
30001;BMP280;16845;48.670;9.000;2023-06-22T06:31:42;95462.63;;;23.59
30001;BMP280;16845;48.670;9.000;2023-06-22T06:34:08;95472.34;;;24.17
30001;BMP280;16845;48.670;9.000;2023-06-22T06:36:35;95470.66;;;24.27
30001;BMP280;16845;48.670;9.000;2023-06-22T06:39:01;95473.75;;;24.21
30001;BMP280;16845;48.670;9.000;2023-06-22T06:41:28;95471.91;;;24.32
30001;BMP280;16845;48.670;9.000;2023-06-22T06:43:54;95468.50;;;24.02
30001;BMP280;16845;48.670;9.000;2023-06-22T06:46:21;95473.38;;;24.05
30001;BMP280;16845;48.670;9.000;2023-06-22T06:48:49;95469.41;;;24.42
30001;BMP280;16845;48.670;9.000;2023-06-22T06:51:15;95469.47;;;24.81
30001;BMP280;16845;48.670;9.000;2023-06-22T06:53:42;95458.69;;;24.57
30001;BMP280;16845;48.670;9.000;2023-06-22T06:56:08;95460.66;;;24.74
30001;BMP280;16845;48.670;9.000;2023-06-22T06:58:35;95454.09;;;24.91
30001;BMP280;16845;48.670;9.000;2023-06-22T07:01:01;95460.56;;;24.85
30001;BMP280;16845;48.670;9.000;2023-06-22T07:03:28;95452.06;;;25.34
30001;BMP280;16845;48.670;9.000;2023-06-22T07:05:56;95448.53;;;25.25
30001;BMP280;16845;48.670;9.000;2023-06-22T07:08:22;95454.91;;;25.50
30001;BMP280;16845;48.670;9.000;2023-06-22T07:10:49;95445.97;;;25.54
30001;BMP280;16845;48.670;9.000;2023-06-22T07:13:15;95439.94;;;25.93
30001;BMP280;16845;48.670;9.000;2023-06-22T07:15:42;95436.56;;;26.38
30001;BMP280;16845;48.670;9.000;2023-06-22T07:18:08;95431.84;;;26.34
30001;BMP280;16845;48.670;9.000;2023-06-22T07:20:35;95433.91;;;26.21
30001;BMP280;16845;48.670;9.000;2023-06-22T07:23:03;95432.69;;;26.15
30001;BMP280;16845;48.670;9.000;2023-06-22T07:25:29;95421.94;;;26.58
30001;BMP280;16845;48.670;9.000;2023-06-22T07:27:58;95411.91;;;27.08
30001;BMP280;16845;48.670;9.000;2023-06-22T07:30:24;95411.06;;;27.17
30001;BMP280;16845;48.670;9.000;2023-06-22T07:32:51;95409.00;;;27.21
30001;BMP280;16845;48.670;9.000;2023-06-22T07:35:18;95408.34;;;27.36
30001;BMP280;16845;48.670;9.000;2023-06-22T07:37:44;95397.22;;;27.53
30001;BMP280;16845;48.670;9.000;2023-06-22T07:40:13;95391.88;;;28.07
30001;BMP280;16845;48.670;9.000;2023-06-22T07:42:39;95389.63;;;27.69
30001;BMP280;16845;48.670;9.000;2023-06-22T07:45:07;95385.44;;;27.86
30001;BMP280;16845;48.670;9.000;2023-06-22T07:47:34;95386.94;;;28.39
30001;BMP280;16845;48.670;9.000;2023-06-22T07:50:01;95388.34;;;28.08
30001;BMP280;16845;48.670;9.000;2023-06-22T07:52:28;95387.66;;;28.57
30001;BMP280;16845;48.670;9.000;2023-06-22T07:54:55;95410.91;;;28.91
30001;BMP280;16845;48.670;9.000;2023-06-22T07:57:23;95419.00;;;28.70
30001;BMP280;16845;48.670;9.000;2023-06-22T07:59:49;95427.34;;;29.39
30001;BMP280;16845;48.670;9.000;2023-06-22T08:02:16;95439.84;;;29.52
30001;BMP280;16845;48.670;9.000;2023-06-22T08:04:42;95437.41;;;29.50
30001;BMP280;16845;48.670;9.000;2023-06-22T08:07:09;95434.22;;;30.04
30001;BMP280;16845;48.670;9.000;2023-06-22T08:09:36;95443.97;;;28.62
30001;BMP280;16845;48.670;9.000;2023-06-22T08:12:02;95452.75;;;29.02
30001;BMP280;16845;48.670;9.000;2023-06-22T08:14:30;95455.50;;;29.09
30001;BMP280;16845;48.670;9.000;2023-06-22T08:16:57;95468.28;;;29.60
30001;BMP280;16845;48.670;9.000;2023-06-22T08:19:23;95460.56;;;30.31
30001;BMP280;16845;48.670;9.000;2023-06-22T08:21:50;95469.34;;;29.00
30001;BMP280;16845;48.670;9.000;2023-06-22T08:24:16;95474.94;;;28.87
30001;BMP280;16845;48.670;9.000;2023-06-22T08:26:43;95473.47;;;29.60
30001;BMP280;16845;48.670;9.000;2023-06-22T08:29:09;95473.81;;;29.23
30001;BMP280;16845;48.670;9.000;2023-06-22T08:31:37;95468.97;;;28.61
30001;BMP280;16845;48.670;9.000;2023-06-22T08:34:04;95459.31;;;28.38
30001;BMP280;16845;48.670;9.000;2023-06-22T08:36:30;95450.81;;;28.02
30001;BMP280;16845;48.670;9.000;2023-06-22T08:38:57;95445.59;;;28.12
30001;BMP280;16845;48.670;9.000;2023-06-22T08:41:23;95454.06;;;28.47
30001;BMP280;16845;48.670;9.000;2023-06-22T08:43:50;95454.03;;;28.39
30001;BMP280;16845;48.670;9.000;2023-06-22T08:46:16;95444.38;;;28.75
30001;BMP280;16845;48.670;9.000;2023-06-22T08:48:44;95440.81;;;29.01
30001;BMP280;16845;48.670;9.000;2023-06-22T08:51:10;95442.38;;;28.61
30001;BMP280;16845;48.670;9.000;2023-06-22T08:53:37;95436.59;;;29.00
30001;BMP280;16845;48.670;9.000;2023-06-22T08:56:04;95425.28;;;30.46
30001;BMP280;16845;48.670;9.000;2023-06-22T08:58:30;95434.31;;;30.74
30001;BMP280;16845;48.670;9.000;2023-06-22T09:00:57;95438.25;;;31.01
30001;BMP280;16845;48.670;9.000;2023-06-22T09:03:23;95451.88;;;30.87
30001;BMP280;16845;48.670;9.000;2023-06-22T09:05:51;95464.56;;;30.58
30001;BMP280;16845;48.670;9.000;2023-06-22T09:08:18;95451.88;;;30.87
30001;BMP280;16845;48.670;9.000;2023-06-22T09:10:45;95444.97;;;31.79
30001;BMP280;16845;48.670;9.000;2023-06-22T09:13:11;95436.56;;;33.87
30001;BMP280;16845;48.670;9.000;2023-06-22T09:15:38;95437.28;;;34.44
30001;BMP280;16845;48.670;9.000;2023-06-22T09:18:04;95428.97;;;34.13
30001;BMP280;16845;48.670;9.000;2023-06-22T09:20:31;95416.00;;;35.02
30001;BMP280;16845;48.670;9.000;2023-06-22T09:22:59;95418.72;;;35.21
30001;BMP280;16845;48.670;9.000;2023-06-22T09:25:25;95413.88;;;35.85
30001;BMP280;16845;48.670;9.000;2023-06-22T09:27:52;95408.25;;;35.88
30001;BMP280;16845;48.670;9.000;2023-06-22T09:30:19;95414.59;;;37.66
30001;BMP280;16845;48.670;9.000;2023-06-22T09:32:46;95412.44;;;35.69
30001;BMP280;16845;48.670;9.000;2023-06-22T09:35:12;95410.28;;;36.77
30001;BMP280;16845;48.670;9.000;2023-06-22T09:37:42;95397.06;;;36.65
30001;BMP280;16845;48.670;9.000;2023-06-22T09:40:10;95396.41;;;35.66
30001;BMP280;16845;48.670;9.000;2023-06-22T09:42:36;95378.19;;;36.24
30001;BMP280;16845;48.670;9.000;2023-06-22T09:45:04;95367.13;;;35.83
30001;BMP280;16845;48.670;9.000;2023-06-22T09:47:31;95365.72;;;36.46
30001;BMP280;16845;48.670;9.000;2023-06-22T09:49:57;95358.28;;;36.23
30001;BMP280;16845;48.670;9.000;2023-06-22T09:52:24;95369.25;;;36.84
30001;BMP280;16845;48.670;9.000;2023-06-22T09:54:59;95350.06;;;36.20
30001;BMP280;16845;48.670;9.000;2023-06-22T09:57:27;95359.56;;;37.04
30001;BMP280;16845;48.670;9.000;2023-06-22T09:59:54;95350.13;;;33.29
30001;BMP280;16845;48.670;9.000;2023-06-22T10:02:20;95357.09;;;32.35
30001;BMP280;16845;48.670;9.000;2023-06-22T10:04:47;95350.00;;;31.55
30001;BMP280;16845;48.670;9.000;2023-06-22T10:07:14;95353.78;;;31.90
30001;BMP280;16845;48.670;9.000;2023-06-22T10:09:40;95355.28;;;31.70
30001;BMP280;16845;48.670;9.000;2023-06-22T10:12:07;95345.78;;;32.14
30001;BMP280;16845;48.670;9.000;2023-06-22T10:14:35;95342.88;;;33.24
30001;BMP280;16845;48.670;9.000;2023-06-22T10:17:02;95336.78;;;34.56
30001;BMP280;16845;48.670;9.000;2023-06-22T10:19:29;95332.31;;;33.68
30001;BMP280;16845;48.670;9.000;2023-06-22T10:21:55;95328.06;;;34.15
30001;BMP280;16845;48.670;9.000;2023-06-22T10:24:22;95336.66;;;33.82
30001;BMP280;16845;48.670;9.000;2023-06-22T10:26:48;95335.31;;;34.81
30001;BMP280;16845;48.670;9.000;2023-06-22T10:29:15;95334.34;;;33.72
30001;BMP280;16845;48.670;9.000;2023-06-22T10:31:44;95330.66;;;35.17
30001;BMP280;16845;48.670;9.000;2023-06-22T10:34:10;95325.88;;;35.27
30001;BMP280;16845;48.670;9.000;2023-06-22T10:36:38;95330.53;;;35.57
30001;BMP280;16845;48.670;9.000;2023-06-22T10:39:05;95310.38;;;36.75
30001;BMP280;16845;48.670;9.000;2023-06-22T10:41:31;95328.50;;;35.40
30001;BMP280;16845;48.670;9.000;2023-06-22T10:43:58;95315.91;;;35.82
30001;BMP280;16845;48.670;9.000;2023-06-22T10:46:25;95327.41;;;34.28
30001;BMP280;16845;48.670;9.000;2023-06-22T10:48:52;95322.81;;;33.18
30001;BMP280;16845;48.670;9.000;2023-06-22T10:51:19;95319.63;;;34.07
30001;BMP280;16845;48.670;9.000;2023-06-22T10:53:45;95328.41;;;33.57
30001;BMP280;16845;48.670;9.000;2023-06-22T10:56:12;95334.41;;;33.01
30001;BMP280;16845;48.670;9.000;2023-06-22T10:58:38;95321.81;;;33.19
30001;BMP280;16845;48.670;9.000;2023-06-22T11:01:05;95325.72;;;33.30
30001;BMP280;16845;48.670;9.000;2023-06-22T11:03:31;95330.78;;;32.38
30001;BMP280;16845;48.670;9.000;2023-06-22T11:05:59;95328.59;;;32.13
30001;BMP280;16845;48.670;9.000;2023-06-22T11:08:26;95319.78;;;32.36
30001;BMP280;16845;48.670;9.000;2023-06-22T11:10:52;95327.66;;;31.77
30001;BMP280;16845;48.670;9.000;2023-06-22T11:13:19;95335.19;;;31.86
30001;BMP280;16845;48.670;9.000;2023-06-22T11:15:45;95337.34;;;31.07
30001;BMP280;16845;48.670;9.000;2023-06-22T11:18:12;95327.41;;;30.42
30001;BMP280;16845;48.670;9.000;2023-06-22T11:20:38;95320.78;;;30.86
30001;BMP280;16845;48.670;9.000;2023-06-22T11:23:07;95324.31;;;31.46
30001;BMP280;16845;48.670;9.000;2023-06-22T11:25:33;95322.94;;;31.95
30001;BMP280;16845;48.670;9.000;2023-06-22T11:28:01;95324.16;;;31.70
30001;BMP280;16845;48.670;9.000;2023-06-22T11:30:28;95318.34;;;31.23
30001;BMP280;16845;48.670;9.000;2023-06-22T11:32:56;95313.25;;;32.26
30001;BMP280;16845;48.670;9.000;2023-06-22T11:35:23;95311.41;;;31.97
30001;BMP280;16845;48.670;9.000;2023-06-22T11:37:49;95313.59;;;32.08
30001;BMP280;16845;48.670;9.000;2023-06-22T11:40:17;95308.28;;;32.88
30001;BMP280;16845;48.670;9.000;2023-06-22T11:42:44;95313.16;;;32.33
30001;BMP280;16845;48.670;9.000;2023-06-22T11:45:11;95314.59;;;31.48
30001;BMP280;16845;48.670;9.000;2023-06-22T11:47:38;95316.47;;;31.54
30001;BMP280;16845;48.670;9.000;2023-06-22T11:50:05;95326.84;;;31.54
30001;BMP280;16845;48.670;9.000;2023-06-22T11:52:33;95333.75;;;31.61
30001;BMP280;16845;48.670;9.000;2023-06-22T11:54:59;95333.31;;;31.95
30001;BMP280;16845;48.670;9.000;2023-06-22T11:57:27;95336.59;;;31.74
30001;BMP280;16845;48.670;9.000;2023-06-22T11:59:54;95350.25;;;31.46
30001;BMP280;16845;48.670;9.000;2023-06-22T12:02:20;95342.44;;;30.93
30001;BMP280;16845;48.670;9.000;2023-06-22T12:04:47;95336.69;;;30.75
30001;BMP280;16845;48.670;9.000;2023-06-22T12:07:13;95338.03;;;30.71
30001;BMP280;16845;48.670;9.000;2023-06-22T12:09:40;95324.53;;;30.45
30001;BMP280;16845;48.670;9.000;2023-06-22T12:12:07;95321.56;;;30.09
30001;BMP280;16845;48.670;9.000;2023-06-22T12:14:35;95316.16;;;30.35
30001;BMP280;16845;48.670;9.000;2023-06-22T12:17:02;95303.63;;;30.46
30001;BMP280;16845;48.670;9.000;2023-06-22T12:19:28;95320.75;;;30.94
30001;BMP280;16845;48.670;9.000;2023-06-22T12:21:55;95338.72;;;30.49
30001;BMP280;16845;48.670;9.000;2023-06-22T12:24:21;95357.28;;;30.06
30001;BMP280;16845;48.670;9.000;2023-06-22T12:26:49;95365.34;;;29.95
30001;BMP280;16845;48.670;9.000;2023-06-22T12:29:15;95363.13;;;29.68
30001;BMP280;16845;48.670;9.000;2023-06-22T12:31:43;95354.38;;;29.69
30001;BMP280;16845;48.670;9.000;2023-06-22T12:34:09;95346.31;;;29.48
30001;BMP280;16845;48.670;9.000;2023-06-22T12:36:36;95329.66;;;29.74
30001;BMP280;16845;48.670;9.000;2023-06-22T12:39:03;95346.59;;;29.85
30001;BMP280;16845;48.670;9.000;2023-06-22T12:41:29;95362.13;;;29.61
30001;BMP280;16845;48.670;9.000;2023-06-22T12:43:56;95362.16;;;29.53
30001;BMP280;16845;48.670;9.000;2023-06-22T12:46:22;95371.16;;;29.41
30001;BMP280;16845;48.670;9.000;2023-06-22T12:48:50;95385.00;;;29.24
30001;BMP280;16845;48.670;9.000;2023-06-22T12:51:20;95396.56;;;28.96
30001;BMP280;16845;48.670;9.000;2023-06-22T12:53:47;95395.59;;;28.97
30001;BMP280;16845;48.670;9.000;2023-06-22T12:56:14;95387.84;;;28.64
30001;BMP280;16845;48.670;9.000;2023-06-22T12:58:40;95385.81;;;28.42
30001;BMP280;16845;48.670;9.000;2023-06-22T13:01:07;95374.34;;;28.36
30001;BMP280;16845;48.670;9.000;2023-06-22T13:03:33;95364.75;;;28.54
30001;BMP280;16845;48.670;9.000;2023-06-22T13:06:01;95349.28;;;28.54
30001;BMP280;16845;48.670;9.000;2023-06-22T13:08:28;95348.97;;;28.57
30001;BMP280;16845;48.670;9.000;2023-06-22T13:11:14;95334.69;;;28.79
30001;BMP280;16845;48.670;9.000;2023-06-22T13:13:41;95328.00;;;29.10
30001;BMP280;16845;48.670;9.000;2023-06-22T13:16:07;95326.41;;;29.41
30001;BMP280;16845;48.670;9.000;2023-06-22T13:18:34;95330.47;;;29.67
30001;BMP280;16845;48.670;9.000;2023-06-22T13:21:02;95325.47;;;29.58
30001;BMP280;16845;48.670;9.000;2023-06-22T13:23:28;95312.16;;;30.00
30001;BMP280;16845;48.670;9.000;2023-06-22T13:25:55;95306.69;;;29.87
30001;BMP280;16845;48.670;9.000;2023-06-22T13:28:21;95312.03;;;30.10
30001;BMP280;16845;48.670;9.000;2023-06-22T13:30:54;95312.78;;;30.26
30001;BMP280;16845;48.670;9.000;2023-06-22T13:33:21;95315.56;;;30.09
30001;BMP280;16845;48.670;9.000;2023-06-22T13:35:47;95318.38;;;30.38
30001;BMP280;16845;48.670;9.000;2023-06-22T13:38:15;95313.66;;;30.49
30001;BMP280;16845;48.670;9.000;2023-06-22T13:40:41;95321.63;;;30.40
30001;BMP280;16845;48.670;9.000;2023-06-22T13:43:08;95314.69;;;30.32
30001;BMP280;16845;48.670;9.000;2023-06-22T13:45:34;95308.56;;;30.25
30001;BMP280;16845;48.670;9.000;2023-06-22T13:48:01;95304.69;;;30.21
30001;BMP280;16845;48.670;9.000;2023-06-22T13:50:28;95293.88;;;30.18
30001;BMP280;16845;48.670;9.000;2023-06-22T13:52:55;95282.88;;;30.24
30001;BMP280;16845;48.670;9.000;2023-06-22T13:55:23;95279.22;;;30.79
30001;BMP280;16845;48.670;9.000;2023-06-22T13:57:49;95281.09;;;32.12
30001;BMP280;16845;48.670;9.000;2023-06-22T14:00:16;95270.44;;;33.84
30001;BMP280;16845;48.670;9.000;2023-06-22T14:02:43;95267.34;;;36.14
30001;BMP280;16845;48.670;9.000;2023-06-22T14:05:10;95263.28;;;37.25
30001;BMP280;16845;48.670;9.000;2023-06-22T14:07:36;95255.88;;;37.47
30001;BMP280;16845;48.670;9.000;2023-06-22T14:10:03;95249.56;;;37.61